createdAt,value
2019-03-15T00:00:30.104Z,4.17
2019-03-15T00:01:44.848Z,3.37
2019-03-15T00:02:58.092Z,2.65
2019-03-15T00:04:15.334Z,2.95
2019-03-15T00:05:30.218Z,6.37
2019-03-15T00:06:43.433Z,1.80
2019-03-15T00:07:58.631Z,2.65
2019-03-15T00:09:14.669Z,1.12
2019-03-15T00:10:31.726Z,3.80
2019-03-15T00:11:46.537Z,4.75
2019-03-15T00:13:00.228Z,4.83
2019-03-15T00:14:14.243Z,5.00
2019-03-15T00:15:28.899Z,6.30
2019-03-15T00:16:42.379Z,5.53
2019-03-15T00:18:03.745Z,2.87
2019-03-15T00:19:18.509Z,3.00
2019-03-15T00:20:36.642Z,5.22
2019-03-15T00:21:50.125Z,4.72
2019-03-15T00:23:12.063Z,3.85
2019-03-15T00:24:27.266Z,5.42
2019-03-15T00:25:42.487Z,2.15
2019-03-15T00:26:58.913Z,3.27
2019-03-15T00:28:16.492Z,2.77
2019-03-15T00:29:31.610Z,4.33
2019-03-15T00:30:49.293Z,6.22
2019-03-15T00:32:04.710Z,5.40
2019-03-15T00:33:18.028Z,1.52
2019-03-15T00:34:33.085Z,2.08
2019-03-15T00:35:53.913Z,2.67
2019-03-15T00:37:15.510Z,1.70
2019-03-15T00:38:29.769Z,9.18
2019-03-15T00:39:45.698Z,2.17
2019-03-15T00:41:04.792Z,5.20
2019-03-15T00:42:20.425Z,2.65
2019-03-15T00:43:45.504Z,3.85
2019-03-15T00:45:08.235Z,3.62
2019-03-15T00:46:44.107Z,4.33
2019-03-15T00:48:02.910Z,3.35
2019-03-15T00:49:16.437Z,3.25
2019-03-15T00:50:30.454Z,3.70
2019-03-15T00:51:49.625Z,4.22
2019-03-15T00:53:11.130Z,3.33
2019-03-15T00:56:02.289Z,6.80
2019-03-15T00:57:16.366Z,2.22
2019-03-15T00:58:30.220Z,8.23
2019-03-15T00:59:48.037Z,5.42
2019-03-15T01:01:01.274Z,6.80
2019-03-15T01:02:19.124Z,2.72
2019-03-15T01:03:37.115Z,6.05
2019-03-15T01:06:25.150Z,3.27
2019-03-15T01:07:41.128Z,5.17
2019-03-15T01:08:56.757Z,5.70
2019-03-15T01:10:12.145Z,5.45
2019-03-15T01:11:27.681Z,2.37
2019-03-15T01:12:40.925Z,2.22
2019-03-15T01:13:55.613Z,3.85
2019-03-15T01:15:12.101Z,4.12
2019-03-15T01:16:27.045Z,7.17
2019-03-15T01:17:44.783Z,2.22
2019-03-15T01:18:58.098Z,3.30
2019-03-15T01:20:13.888Z,2.30
2019-03-15T01:21:28.244Z,5.70
2019-03-15T01:22:43.966Z,3.42
2019-03-15T01:23:57.183Z,3.60
2019-03-15T01:25:16.838Z,3.65
2019-03-15T01:26:33.165Z,4.87
2019-03-15T01:27:46.417Z,6.05
2019-03-15T01:28:59.908Z,3.80
2019-03-15T01:30:15.491Z,2.30
2019-03-15T01:31:32.805Z,1.70
2019-03-15T01:32:49.163Z,3.30
2019-03-15T01:34:05.130Z,3.17
2019-03-15T01:35:25.213Z,1.98
2019-03-15T01:36:45.131Z,3.27
2019-03-15T01:38:05.643Z,4.22
2019-03-15T01:39:24.406Z,2.05
2019-03-15T01:40:39.270Z,2.30
2019-03-15T01:41:52.493Z,1.67
2019-03-15T01:43:10.073Z,3.80
2019-03-15T01:44:23.674Z,4.97
2019-03-15T01:45:40.213Z,4.55
2019-03-15T01:48:31.576Z,2.25
2019-03-15T01:49:45.671Z,2.17
2019-03-15T01:51:00.261Z,2.70
2019-03-15T01:52:16.317Z,4.35
2019-03-15T01:53:32.998Z,5.22
2019-03-15T01:54:56.237Z,3.17
2019-03-15T01:56:19.070Z,5.45
2019-03-15T01:57:35.074Z,1.72
2019-03-15T01:58:49.537Z,2.98
2019-03-15T02:00:10.700Z,2.72
2019-03-15T02:01:23.943Z,2.02
2019-03-15T02:02:42.397Z,4.20
2019-03-15T02:03:58.886Z,2.35
2019-03-15T02:05:14.801Z,2.40
2019-03-15T02:06:29.454Z,2.45
2019-03-15T02:07:44.414Z,3.92
2019-03-15T02:08:59.138Z,2.85
2019-03-15T02:10:13.781Z,5.30
2019-03-15T02:11:27.867Z,4.30
2019-03-15T02:12:41.182Z,3.20
2019-03-15T02:13:56.727Z,2.60
2019-03-15T02:15:18.771Z,5.78
2019-03-15T02:16:38.173Z,6.30
2019-03-15T02:17:52.677Z,5.50
2019-03-15T02:19:08.702Z,4.03
2019-03-15T02:20:24.961Z,4.33
2019-03-15T02:21:38.271Z,6.83
2019-03-15T02:22:53.949Z,3.22
2019-03-15T02:24:08.749Z,5.53
2019-03-15T02:25:23.602Z,5.33
2019-03-15T02:26:44.434Z,3.52
2019-03-15T02:27:59.146Z,3.15
2019-03-15T02:29:25.057Z,6.33
2019-03-15T02:30:39.850Z,4.08
2019-03-15T02:31:54.702Z,7.05
2019-03-15T02:33:12.170Z,6.55
2019-03-15T02:34:32.603Z,6.03
2019-03-15T02:35:47.698Z,5.30
2019-03-15T02:37:01.510Z,4.60
2019-03-15T02:38:16.502Z,3.58
2019-03-15T02:39:32.782Z,3.98
2019-03-15T02:40:46.022Z,6.42
2019-03-15T02:41:59.367Z,5.78
2019-03-15T02:43:12.563Z,6.50
2019-03-15T02:44:27.464Z,5.08
2019-03-15T02:45:52.802Z,5.12
2019-03-15T02:47:12.832Z,3.72
2019-03-15T02:48:29.102Z,5.47
2019-03-15T02:49:43.073Z,4.90
2019-03-15T02:51:05.202Z,3.05
2019-03-15T02:52:24.136Z,4.47
2019-03-15T02:53:40.541Z,4.25
2019-03-15T02:54:56.758Z,7.67
2019-03-15T02:56:11.618Z,8.68
2019-03-15T02:57:26.073Z,8.85
2019-03-15T02:58:41.089Z,4.20
2019-03-15T02:59:57.927Z,5.53
2019-03-15T03:01:14.274Z,3.67
2019-03-15T03:02:29.185Z,4.72
2019-03-15T03:03:43.290Z,4.17
2019-03-15T03:05:04.664Z,3.83
2019-03-15T03:07:41.882Z,3.90
2019-03-15T03:08:56.184Z,5.60
2019-03-15T03:10:14.910Z,7.30
2019-03-15T03:11:33.290Z,4.40
2019-03-15T03:12:50.423Z,5.95
2019-03-15T03:14:08.400Z,4.72
2019-03-15T03:15:21.616Z,6.45
2019-03-15T03:16:34.842Z,6.33
2019-03-15T03:17:51.496Z,4.20
2019-03-15T03:19:04.803Z,6.10
2019-03-15T03:20:18.045Z,5.70
2019-03-15T03:21:39.449Z,5.10
2019-03-15T03:24:09.645Z,6.33
2019-03-15T03:25:28.710Z,6.05
2019-03-15T03:26:43.458Z,6.58
2019-03-15T03:28:01.535Z,6.12
2019-03-15T03:29:24.835Z,13.22
2019-03-15T03:30:40.680Z,8.98
2019-03-15T03:31:57.261Z,3.25
2019-03-15T03:33:12.633Z,4.62
2019-03-15T03:34:31.025Z,8.88
2019-03-15T03:35:51.085Z,4.90
2019-03-15T03:37:06.872Z,5.10
2019-03-15T03:38:29.455Z,5.03
2019-03-15T03:39:43.846Z,3.65
2019-03-15T03:40:59.523Z,7.12
2019-03-15T03:42:14.194Z,7.35
2019-03-15T03:43:31.991Z,4.03
2019-03-15T03:44:53.582Z,6.08
2019-03-15T03:46:07.357Z,4.90
2019-03-15T03:47:26.077Z,3.65
2019-03-15T03:48:43.913Z,8.18
2019-03-15T03:49:58.762Z,8.00
2019-03-15T03:51:42.896Z,6.72
2019-03-15T03:53:02.111Z,8.35
2019-03-15T03:54:17.189Z,5.40
2019-03-15T03:55:34.802Z,5.92
2019-03-15T03:56:49.761Z,3.27
2019-03-15T03:58:09.123Z,5.55
2019-03-15T03:59:28.039Z,4.30
2019-03-15T04:00:47.805Z,6.62
2019-03-15T04:02:05.625Z,4.05
2019-03-15T04:03:18.858Z,6.15
2019-03-15T04:04:39.142Z,3.40
2019-03-15T04:06:01.693Z,7.85
2019-03-15T04:07:17.021Z,8.55
2019-03-15T04:08:37.117Z,7.80
2019-03-15T04:09:53.487Z,3.80
2019-03-15T04:11:12.521Z,5.17
2019-03-15T04:12:26.733Z,5.95
2019-03-15T04:13:58.595Z,3.40
2019-03-15T04:15:12.907Z,6.35
2019-03-15T04:16:30.238Z,5.97
2019-03-15T04:17:43.460Z,7.25
2019-03-15T04:18:57.599Z,6.83
2019-03-15T04:20:13.743Z,2.42
2019-03-15T04:21:27.049Z,5.10
2019-03-15T04:22:41.576Z,4.05
2019-03-15T04:23:56.495Z,7.12
2019-03-15T04:25:12.730Z,5.08
2019-03-15T04:26:28.492Z,9.85
2019-03-15T04:27:46.184Z,3.30
2019-03-15T04:28:59.434Z,5.05
2019-03-15T04:30:15.941Z,4.97
2019-03-15T04:31:36.116Z,6.42
2019-03-15T04:32:56.426Z,5.47
2019-03-15T04:34:11.771Z,6.78
2019-03-15T04:35:30.066Z,6.45
2019-03-15T04:36:48.226Z,10.03
2019-03-15T04:38:06.207Z,7.72
2019-03-15T04:39:32.680Z,6.25
2019-03-15T04:40:59.001Z,6.22
2019-03-15T04:42:14.579Z,5.00
2019-03-15T04:43:32.319Z,2.95
2019-03-15T04:44:49.073Z,6.75
2019-03-15T04:46:07.041Z,4.28
2019-03-15T04:47:24.563Z,6.35
2019-03-15T04:48:46.469Z,6.97
2019-03-15T04:50:11.597Z,4.80
2019-03-15T04:51:25.841Z,6.30
2019-03-15T04:52:39.304Z,6.83
2019-03-15T04:53:57.071Z,5.05
2019-03-15T04:55:33.192Z,8.63
2019-03-15T04:56:50.988Z,6.20
2019-03-15T04:58:07.420Z,6.97
2019-03-15T04:59:24.260Z,4.90
2019-03-15T05:00:38.200Z,7.42
2019-03-15T05:01:59.425Z,5.58
2019-03-15T05:03:19.595Z,7.65
2019-03-15T05:04:38.216Z,5.78
2019-03-15T05:06:02.620Z,4.70
2019-03-15T05:07:20.553Z,6.50
2019-03-15T05:08:41.142Z,3.50
2019-03-15T05:09:54.657Z,5.60
2019-03-15T05:11:13.725Z,4.97
2019-03-15T05:12:31.577Z,8.23
2019-03-15T05:13:54.732Z,5.47
2019-03-15T05:15:12.463Z,4.53
2019-03-15T05:16:25.683Z,2.58
2019-03-15T05:21:43.737Z,6.70
2019-03-15T05:23:08.815Z,9.25
2019-03-15T05:26:38.483Z,3.95
2019-03-15T05:29:44.461Z,6.70
2019-03-15T05:32:54.705Z,3.80
2019-03-15T05:34:12.610Z,6.10
2019-03-15T05:35:36.350Z,4.62
2019-03-15T05:37:11.571Z,6.28
2019-03-15T05:41:52.947Z,6.95
2019-03-15T05:43:10.577Z,7.30
2019-03-15T05:46:04.735Z,5.17
2019-03-15T05:49:16.997Z,5.37
2019-03-15T05:52:06.994Z,7.83
2019-03-15T05:53:29.150Z,5.03
2019-03-15T05:54:48.351Z,9.10
2019-03-15T05:56:23.931Z,7.92
2019-03-15T05:57:38.382Z,6.47
2019-03-15T06:00:28.947Z,3.30
2019-03-15T06:01:45.131Z,12.40
2019-03-15T06:05:02.670Z,6.70
2019-03-15T06:09:12.405Z,7.47
2019-03-15T06:10:20.501Z,5.85
2019-03-15T06:11:42.254Z,7.40
2019-03-15T06:16:40.661Z,10.98
2019-03-15T06:18:13.176Z,5.58
2019-03-15T06:19:24.113Z,11.33
2019-03-15T06:20:37.607Z,9.80
2019-03-15T06:21:50.828Z,8.43
2019-03-15T06:23:04.282Z,9.95
2019-03-15T06:24:17.506Z,8.90
2019-03-15T06:25:30.743Z,13.08
2019-03-15T06:26:43.997Z,8.73
2019-03-15T06:27:58.480Z,11.45
2019-03-15T06:29:11.729Z,10.45
2019-03-15T06:30:24.963Z,11.12
2019-03-15T06:31:38.195Z,7.72
2019-03-15T06:32:51.422Z,9.33
2019-03-15T06:34:04.645Z,11.68
2019-03-15T06:35:24.010Z,11.53
2019-03-15T06:36:46.973Z,6.25
2019-03-15T06:38:19.650Z,6.62
2019-03-15T06:39:38.704Z,10.72
2019-03-15T06:40:54.546Z,11.10
2019-03-15T06:42:10.414Z,12.43
2019-03-15T06:43:28.513Z,12.13
2019-03-15T06:46:20.861Z,12.20
2019-03-15T06:46:24.646Z,10.15
2019-03-15T06:47:38.937Z,8.50
2019-03-15T06:48:58.562Z,6.80
2019-03-15T06:50:25.796Z,10.50
2019-03-15T06:51:40.698Z,8.08
2019-03-15T06:52:55.334Z,7.45
2019-03-15T06:56:17.126Z,7.33
2019-03-15T06:57:51.846Z,10.15
2019-03-15T06:59:14.382Z,6.10
2019-03-15T07:00:40.960Z,10.55
2019-03-15T07:02:32.839Z,10.65
2019-03-15T07:05:56.175Z,10.85
2019-03-15T07:07:15.310Z,13.40
2019-03-15T07:09:07.334Z,7.70
2019-03-15T07:10:22.178Z,9.65
2019-03-15T07:16:07.478Z,8.93
2019-03-15T07:19:25.478Z,5.22
2019-03-15T07:20:46.719Z,4.62
2019-03-15T07:22:24.568Z,6.22
2019-03-15T07:25:57.026Z,5.45
2019-03-15T07:36:12.900Z,2.87
2019-03-15T07:38:08.570Z,3.58
2019-03-15T07:41:18.409Z,3.75
2019-03-15T07:43:08.254Z,5.45
2019-03-15T07:44:23.129Z,6.25
2019-03-15T07:47:29.914Z,3.95
2019-03-15T07:48:51.890Z,6.55
2019-03-15T07:50:53.477Z,2.60
2019-03-15T07:53:29.735Z,6.50
2019-03-15T07:56:34.050Z,3.75
2019-03-15T07:58:02.417Z,2.42
2019-03-15T08:02:43.066Z,1.22
2019-03-15T08:03:56.311Z,2.62
2019-03-15T08:05:13.915Z,2.30
2019-03-15T08:07:05.094Z,3.45
2019-03-15T08:10:43.533Z,4.15
2019-03-15T08:12:08.755Z,3.75
2019-03-15T08:13:39.853Z,7.50
2019-03-15T08:17:25.219Z,4.83
2019-03-15T08:18:52.089Z,4.78
2019-03-15T08:20:16.374Z,3.42
2019-03-15T08:21:40.743Z,1.67
2019-03-15T08:23:29.291Z,8.08
2019-03-15T08:24:51.349Z,3.00
2019-03-15T08:26:21.629Z,1.98
2019-03-15T08:27:54.648Z,4.15
2019-03-15T08:29:25.232Z,2.87
2019-03-15T08:32:43.966Z,2.02
2019-03-15T08:34:16.633Z,1.20
2019-03-15T08:35:34.690Z,1.30
2019-03-15T08:36:49.085Z,2.77
2019-03-15T08:38:11.409Z,2.22
2019-03-15T08:39:41.625Z,3.30
2019-03-15T08:41:08.352Z,1.22
2019-03-15T08:42:42.391Z,1.87
2019-03-15T08:43:57.014Z,1.60
2019-03-15T08:45:32.985Z,1.02
2019-03-15T08:46:58.278Z,0.98
2019-03-15T08:48:21.855Z,1.55
2019-03-15T08:50:56.550Z,1.12
2019-03-15T08:52:09.891Z,2.15
2019-03-15T08:53:23.179Z,1.60
2019-03-15T08:54:36.423Z,1.35
2019-03-15T08:55:49.680Z,0.90
2019-03-15T08:57:03.794Z,2.02
2019-03-15T08:58:21.960Z,0.60
2019-03-15T08:59:38.089Z,1.25
2019-03-15T09:00:52.326Z,1.57
2019-03-15T09:02:08.720Z,2.10
2019-03-15T09:03:27.951Z,0.65
2019-03-15T09:04:37.002Z,1.22
2019-03-15T09:05:50.269Z,1.57
2019-03-15T09:07:03.626Z,1.30
2019-03-15T09:08:16.948Z,1.57
2019-03-15T09:09:30.185Z,1.70
2019-03-15T09:10:43.440Z,0.93
2019-03-15T09:11:56.700Z,1.35
2019-03-15T09:13:11.159Z,1.00
2019-03-15T09:14:24.425Z,1.40
2019-03-15T09:15:37.704Z,0.80
2019-03-15T09:16:50.954Z,0.70
2019-03-15T09:18:04.293Z,0.62
2019-03-15T09:19:18.425Z,2.22
2019-03-15T09:20:33.316Z,0.78
2019-03-15T09:21:46.544Z,0.90
2019-03-15T09:22:59.907Z,1.87
2019-03-15T09:24:13.516Z,0.82
2019-03-15T09:25:27.155Z,0.90
2019-03-15T09:26:40.687Z,1.30
2019-03-15T09:27:53.956Z,0.68
2019-03-15T09:29:07.211Z,0.80
2019-03-15T09:30:24.550Z,5.37
2019-03-15T09:31:46.976Z,0.90
2019-03-15T09:32:50.644Z,1.07
2019-03-15T09:34:03.920Z,1.32
2019-03-15T09:35:17.284Z,0.78
2019-03-15T09:36:33.877Z,1.90
2019-03-15T09:37:47.256Z,1.42
2019-03-15T09:39:00.835Z,0.72
2019-03-15T09:40:15.567Z,2.02
2019-03-15T09:41:33.440Z,0.55
2019-03-15T09:42:43.798Z,0.85
2019-03-15T09:43:57.057Z,0.62
2019-03-15T09:45:13.368Z,1.75
2019-03-15T09:46:26.625Z,0.60
2019-03-15T09:47:39.926Z,1.55
2019-03-15T09:48:53.188Z,1.02
2019-03-15T09:50:20.986Z,0.30
2019-03-15T09:51:24.421Z,0.93
2019-03-15T09:52:37.668Z,0.50
2019-03-15T09:53:50.917Z,0.30
2019-03-15T09:55:06.148Z,0.93
2019-03-15T09:56:19.428Z,0.62
2019-03-15T09:57:32.785Z,0.65
2019-03-15T09:58:46.420Z,0.57
2019-03-15T09:59:59.692Z,0.50
2019-03-15T10:01:13.114Z,0.53
2019-03-15T10:02:30.728Z,0.57
2019-03-15T10:03:41.774Z,0.40
2019-03-15T10:04:55.086Z,0.30
2019-03-15T10:06:15.407Z,2.47
2019-03-15T10:07:37.462Z,2.37
2019-03-15T10:08:38.451Z,0.40
2019-03-15T10:09:52.775Z,2.15
2019-03-15T10:11:06.234Z,0.68
2019-03-15T10:12:19.483Z,0.50
2019-03-15T10:13:32.869Z,0.75
2019-03-15T10:14:47.183Z,0.80
2019-03-15T10:16:00.428Z,0.45
2019-03-15T10:17:13.848Z,1.65
2019-03-15T10:18:27.119Z,1.00
2019-03-15T10:19:40.631Z,0.88
2019-03-15T10:20:53.870Z,1.15
2019-03-15T10:22:07.127Z,2.17
2019-03-15T10:23:20.961Z,0.50
2019-03-15T10:24:34.224Z,0.75
2019-03-15T10:25:51.132Z,0.42
2019-03-15T10:27:02.536Z,0.40
2019-03-15T10:28:15.816Z,1.45
2019-03-15T10:29:29.158Z,0.80
2019-03-15T10:30:42.415Z,2.15
2019-03-15T10:31:55.657Z,0.85
2019-03-15T10:33:08.889Z,2.17
2019-03-15T10:34:22.232Z,0.55
2019-03-15T10:35:35.591Z,0.53
2019-03-15T10:36:48.823Z,0.82
2019-03-15T10:38:02.098Z,1.05
2019-03-15T10:39:15.346Z,0.95
2019-03-15T10:40:28.612Z,0.78
2019-03-15T10:41:41.896Z,0.62
2019-03-15T10:42:55.673Z,1.50
2019-03-15T10:44:09.206Z,1.02
2019-03-15T10:45:22.422Z,0.75
2019-03-15T10:46:35.709Z,1.27
2019-03-15T10:47:49.137Z,0.85
2019-03-15T10:49:02.389Z,2.40
2019-03-15T10:50:19.243Z,0.68
2019-03-15T10:51:32.559Z,2.77
2019-03-15T10:52:45.794Z,0.88
2019-03-15T10:54:00.220Z,1.05
2019-03-15T10:55:13.453Z,0.68
2019-03-15T10:56:26.706Z,0.55
2019-03-15T10:57:39.989Z,0.50
2019-03-15T10:58:53.245Z,0.50
2019-03-15T11:00:15.371Z,0.40
2019-03-15T11:01:28.618Z,0.68
2019-03-15T11:02:41.873Z,0.40
2019-03-15T11:03:55.317Z,1.35
2019-03-15T11:05:09.916Z,0.88
2019-03-15T11:06:23.218Z,0.55
2019-03-15T11:07:36.452Z,2.12
2019-03-15T11:08:49.730Z,0.70
2019-03-15T11:10:03.026Z,1.00
2019-03-15T11:11:16.341Z,1.65
2019-03-15T11:12:29.586Z,0.68
2019-03-15T11:13:42.842Z,1.22
2019-03-15T11:14:56.755Z,0.88
2019-03-15T11:16:10.015Z,0.47
2019-03-15T11:17:23.256Z,0.60
2019-03-15T11:18:36.497Z,1.05
2019-03-15T11:19:49.770Z,0.40
2019-03-15T11:21:03.129Z,0.50
2019-03-15T11:22:18.070Z,0.82
2019-03-15T11:23:31.345Z,1.77
2019-03-15T11:24:44.735Z,0.50
2019-03-15T11:25:57.987Z,1.37
2019-03-15T11:27:11.247Z,3.25
2019-03-15T11:28:24.540Z,0.55
2019-03-15T11:29:37.868Z,2.02
2019-03-15T11:30:51.197Z,0.75
2019-03-15T11:32:04.849Z,0.80
2019-03-15T11:33:18.152Z,1.45
2019-03-15T11:34:31.392Z,0.53
2019-03-15T11:35:44.716Z,2.58
2019-03-15T11:36:58.751Z,0.60
2019-03-15T11:38:12.202Z,0.60
2019-03-15T11:39:25.557Z,0.80
2019-03-15T11:40:38.875Z,0.33
2019-03-15T11:41:52.183Z,1.25
2019-03-15T11:43:06.100Z,0.57
2019-03-15T11:44:19.369Z,0.37
2019-03-15T11:45:32.656Z,0.50
2019-03-15T11:46:46.241Z,0.42
2019-03-15T11:48:04.261Z,0.55
2019-03-15T11:49:14.668Z,0.60
2019-03-15T11:50:27.905Z,0.88
2019-03-15T11:51:42.562Z,0.93
2019-03-15T11:52:56.062Z,1.40
2019-03-15T11:54:09.961Z,0.47
2019-03-15T11:55:23.205Z,0.40
2019-03-15T11:56:36.440Z,0.40
2019-03-15T11:57:49.684Z,0.57
2019-03-15T11:59:02.937Z,1.25
2019-03-15T12:00:17.219Z,0.65
2019-03-15T12:01:30.451Z,0.50
2019-03-15T12:02:43.703Z,0.50
2019-03-15T12:03:56.964Z,0.68
2019-03-15T12:05:10.813Z,0.55
2019-03-15T12:06:24.116Z,0.60
2019-03-15T12:07:37.364Z,0.90
2019-03-15T12:08:50.623Z,0.42
2019-03-15T12:10:06.225Z,0.82
2019-03-15T12:11:19.850Z,0.60
2019-03-15T12:12:33.056Z,0.88
2019-03-15T12:13:46.446Z,0.62
2019-03-15T12:15:00.684Z,0.57
2019-03-15T12:16:13.964Z,0.60
2019-03-15T12:17:27.616Z,1.15
2019-03-15T12:18:40.868Z,0.80
2019-03-15T12:19:54.152Z,1.25
2019-03-15T12:21:07.403Z,0.57
2019-03-15T12:22:20.691Z,0.40
2019-03-15T12:23:33.915Z,1.22
2019-03-15T12:24:47.187Z,0.60
2019-03-15T12:26:00.437Z,0.68
2019-03-15T12:27:13.719Z,4.65
2019-03-15T12:28:27.149Z,0.50
2019-03-15T12:29:40.553Z,1.37
2019-03-15T12:30:53.791Z,0.47
2019-03-15T12:32:07.041Z,1.22
2019-03-15T12:33:20.300Z,0.72
2019-03-15T12:34:33.619Z,2.85
2019-03-15T12:35:46.860Z,0.60
2019-03-15T12:37:01.055Z,0.37
2019-03-15T12:38:15.322Z,0.45
2019-03-15T12:39:28.569Z,1.47
2019-03-15T12:40:41.884Z,0.50
2019-03-15T12:41:55.185Z,2.10
2019-03-15T12:43:08.556Z,1.07
2019-03-15T12:44:21.814Z,0.95
2019-03-15T12:45:41.432Z,0.72
2019-03-15T12:46:54.740Z,0.90
2019-03-15T12:48:08.066Z,1.00
2019-03-15T12:49:21.306Z,0.40
2019-03-15T12:50:34.611Z,1.20
2019-03-15T12:51:48.822Z,0.50
2019-03-15T12:53:02.104Z,0.45
2019-03-15T12:54:15.514Z,0.57
2019-03-15T12:55:28.772Z,0.53
2019-03-15T12:56:53.282Z,1.55
2019-03-15T12:57:57.209Z,1.10
2019-03-15T12:59:10.457Z,1.40
2019-03-15T13:00:23.976Z,1.85
2019-03-15T13:01:37.304Z,0.90
2019-03-15T13:02:50.680Z,2.25
2019-03-15T13:04:04.462Z,0.78
2019-03-15T13:05:17.771Z,4.25
2019-03-15T13:06:31.966Z,1.45
2019-03-15T13:07:45.213Z,0.45
2019-03-15T13:08:58.590Z,0.70
2019-03-15T13:10:14.363Z,1.05
2019-03-15T13:11:27.612Z,0.40
2019-03-15T13:12:40.870Z,2.02
2019-03-15T13:13:54.126Z,1.32
2019-03-15T13:15:10.823Z,0.78
2019-03-15T13:16:24.132Z,1.32
2019-03-15T13:17:37.484Z,0.75
2019-03-15T13:18:50.736Z,0.60
2019-03-15T13:20:05.226Z,0.98
2019-03-15T13:21:20.818Z,0.30
2019-03-15T13:22:34.398Z,0.65
2019-03-15T13:23:47.675Z,1.00
2019-03-15T13:25:01.081Z,1.37
2019-03-15T13:26:14.296Z,1.82
2019-03-15T13:27:27.571Z,1.80
2019-03-15T13:28:40.841Z,1.57
2019-03-15T13:29:54.079Z,0.55
2019-03-15T13:31:08.830Z,1.15
2019-03-15T13:32:22.073Z,2.22
2019-03-15T13:33:35.326Z,0.95
2019-03-15T13:34:48.582Z,0.65
2019-03-15T13:36:01.832Z,0.65
2019-03-15T13:37:15.102Z,3.62
2019-03-15T13:38:28.343Z,2.05
2019-03-15T13:39:41.611Z,0.40
2019-03-15T13:40:54.857Z,1.25
2019-03-15T13:42:08.953Z,0.72
2019-03-15T13:43:22.280Z,0.70
2019-03-15T13:44:35.573Z,1.90
2019-03-15T13:45:48.828Z,0.30
2019-03-15T13:47:02.095Z,0.70
2019-03-15T13:48:16.462Z,0.37
2019-03-15T13:49:30.745Z,1.55
2019-03-15T13:50:44.003Z,0.57
2019-03-15T13:51:57.248Z,0.45
2019-03-15T13:53:10.507Z,0.40
2019-03-15T13:54:24.074Z,1.20
2019-03-15T13:55:37.340Z,0.60
2019-03-15T13:56:50.610Z,1.22
2019-03-15T13:58:04.025Z,3.45
2019-03-15T13:59:17.343Z,0.40
2019-03-15T14:00:30.714Z,2.47
2019-03-15T14:01:44.969Z,0.40
2019-03-15T14:02:58.293Z,0.62
2019-03-15T14:04:11.566Z,0.85
2019-03-15T14:05:25.201Z,0.93
2019-03-15T14:06:38.542Z,0.88
2019-03-15T14:07:51.685Z,0.93
2019-03-15T14:09:06.412Z,0.78
2019-03-15T14:10:19.487Z,0.40
2019-03-15T14:11:32.647Z,0.50
2019-03-15T14:12:46.476Z,1.02
2019-03-15T14:14:01.533Z,0.95
2019-03-15T14:15:17.997Z,0.37
2019-03-15T14:16:31.142Z,0.28
2019-03-15T14:17:44.280Z,0.75
2019-03-15T14:18:57.297Z,0.40
2019-03-15T14:20:10.979Z,0.40
2019-03-15T14:21:23.990Z,0.88
2019-03-15T14:22:37.030Z,0.20
2019-03-15T14:23:50.124Z,0.40
2019-03-15T14:25:04.343Z,2.15
2019-03-15T14:26:17.410Z,0.30
2019-03-15T14:27:37.328Z,2.90
2019-03-15T14:28:45.271Z,0.50
2019-03-15T14:30:00.170Z,1.92
2019-03-15T14:31:13.399Z,2.00
2019-03-15T14:32:26.470Z,0.55
2019-03-15T14:33:39.581Z,1.02
2019-03-15T14:34:52.637Z,0.33
2019-03-15T14:36:07.654Z,1.05
2019-03-15T14:37:21.039Z,0.68
2019-03-15T14:38:34.523Z,0.40
2019-03-15T14:39:47.837Z,0.40
2019-03-15T14:41:01.365Z,0.35
2019-03-15T14:42:15.043Z,0.50
2019-03-15T14:43:28.299Z,0.98
2019-03-15T14:44:41.724Z,1.50
2019-03-15T14:45:55.201Z,1.02
2019-03-15T14:47:08.495Z,0.55
2019-03-15T14:48:22.693Z,0.82
2019-03-15T14:49:38.232Z,0.60
2019-03-15T14:50:52.071Z,0.28
2019-03-15T14:52:05.379Z,0.50
2019-03-15T14:53:18.641Z,0.33
2019-03-15T14:54:32.698Z,0.28
2019-03-15T14:55:46.081Z,0.37
2019-03-15T14:56:59.406Z,0.78
2019-03-15T14:58:12.662Z,0.70
2019-03-15T14:59:25.926Z,1.45
2019-03-15T15:00:39.377Z,0.40
2019-03-15T15:01:52.695Z,0.60
2019-03-15T15:03:05.942Z,1.30
2019-03-15T15:04:19.186Z,0.80
2019-03-15T15:05:32.504Z,0.50
2019-03-15T15:06:46.735Z,1.05
2019-03-15T15:07:59.995Z,0.68
2019-03-15T15:09:13.245Z,0.72
2019-03-15T15:10:26.505Z,0.82
2019-03-15T15:11:39.820Z,0.88
2019-03-15T15:12:53.119Z,0.60
2019-03-15T15:14:06.355Z,0.70
2019-03-15T15:15:22.431Z,3.62
2019-03-15T15:16:36.332Z,0.95
2019-03-15T15:17:49.586Z,0.53
2019-03-15T15:19:02.831Z,1.37
2019-03-15T15:20:16.077Z,2.00
2019-03-15T15:21:29.362Z,3.12
2019-03-15T15:22:43.238Z,1.27
2019-03-15T15:23:57.058Z,0.95
2019-03-15T15:25:12.422Z,0.60
2019-03-15T15:26:25.725Z,1.98
2019-03-15T15:27:38.971Z,2.10
2019-03-15T15:28:53.333Z,2.52
2019-03-15T15:30:07.874Z,0.50
2019-03-15T15:31:21.148Z,0.47
2019-03-15T15:32:35.411Z,0.85
2019-03-15T15:33:48.806Z,0.72
2019-03-15T15:35:02.105Z,1.85
2019-03-15T15:36:15.427Z,0.30
2019-03-15T15:37:28.686Z,0.88
2019-03-15T15:38:41.927Z,1.35
2019-03-15T15:39:55.350Z,0.50
2019-03-15T15:41:08.410Z,2.30
2019-03-15T15:42:21.459Z,1.00
2019-03-15T15:43:54.178Z,1.55
2019-03-15T15:46:48.316Z,0.62
2019-03-15T15:48:00.125Z,0.30
2019-03-15T15:49:14.189Z,0.47
2019-03-15T15:50:28.568Z,1.75
2019-03-15T15:51:41.675Z,0.62
2019-03-15T15:52:54.755Z,0.82
2019-03-15T15:54:07.906Z,0.50
2019-03-15T15:55:20.959Z,0.50
2019-03-15T15:56:39.822Z,2.77
2019-03-15T15:57:52.893Z,1.32
2019-03-15T15:59:05.968Z,0.55
2019-03-15T16:00:19.053Z,2.58
2019-03-15T16:01:32.197Z,1.07
2019-03-15T16:02:45.343Z,0.45
2019-03-15T16:03:58.636Z,0.45
2019-03-15T16:05:11.883Z,0.47
2019-03-15T16:06:25.201Z,0.60
2019-03-15T16:07:38.464Z,0.60
2019-03-15T16:08:51.689Z,1.30
2019-03-15T16:10:06.350Z,2.08
2019-03-15T16:11:19.423Z,0.50
2019-03-15T16:12:32.500Z,0.78
2019-03-15T16:13:45.557Z,1.52
2019-03-15T16:15:06.316Z,2.30
2019-03-15T16:16:19.371Z,0.78
2019-03-15T16:17:32.808Z,0.40
2019-03-15T16:18:46.224Z,0.80
2019-03-15T16:19:59.586Z,1.77
2019-03-15T16:21:12.860Z,0.45
2019-03-15T16:22:26.115Z,1.27
2019-03-15T16:23:39.391Z,1.37
2019-03-15T16:24:52.627Z,1.52
2019-03-15T16:26:05.715Z,0.50
2019-03-15T16:27:18.867Z,2.22
2019-03-15T16:28:35.831Z,0.88
2019-03-15T16:29:46.804Z,1.45
2019-03-15T16:31:00.879Z,0.40
2019-03-15T16:32:13.997Z,3.10
2019-03-15T16:33:27.073Z,0.95
2019-03-15T16:34:42.347Z,1.55
2019-03-15T16:35:55.489Z,1.27
2019-03-15T16:37:08.635Z,0.60
2019-03-15T16:38:21.688Z,0.95
2019-03-15T16:39:34.831Z,0.50
2019-03-15T16:40:48.013Z,1.85
2019-03-15T16:42:01.131Z,0.40
2019-03-15T16:43:14.277Z,0.93
2019-03-15T16:44:27.388Z,0.50
2019-03-15T16:45:40.467Z,0.95
2019-03-15T16:46:53.522Z,0.62
2019-03-15T16:48:06.602Z,1.27
2019-03-15T16:49:19.696Z,2.37
2019-03-15T16:50:32.760Z,0.82
2019-03-15T16:51:45.863Z,0.82
2019-03-15T16:52:58.949Z,1.05
2019-03-15T16:54:12.064Z,1.17
2019-03-15T16:55:25.233Z,0.70
2019-03-15T16:56:38.262Z,1.05
2019-03-15T16:57:51.353Z,0.72
2019-03-15T16:59:04.450Z,0.72
2019-03-15T17:00:17.551Z,1.00
2019-03-15T17:01:30.626Z,1.27
2019-03-15T17:02:43.714Z,1.20
2019-03-15T17:03:56.882Z,1.22
2019-03-15T17:05:10.415Z,1.87
2019-03-15T17:06:23.511Z,1.05
2019-03-15T17:07:36.586Z,0.72
2019-03-15T17:08:49.691Z,0.50
2019-03-15T17:10:03.060Z,0.60
2019-03-15T17:11:16.159Z,2.25
2019-03-15T17:12:29.299Z,0.75
2019-03-15T17:13:42.523Z,1.45
2019-03-15T17:14:55.653Z,1.10
2019-03-15T17:16:08.916Z,3.30
2019-03-15T17:17:22.186Z,1.25
2019-03-15T17:18:35.260Z,0.50
2019-03-15T17:19:48.313Z,0.95
2019-03-15T17:21:01.504Z,1.12
2019-03-15T17:22:14.887Z,0.50
2019-03-15T17:23:28.069Z,1.37
2019-03-15T17:24:41.361Z,0.60
2019-03-15T17:25:57.543Z,0.98
2019-03-15T17:27:12.308Z,0.90
2019-03-15T17:28:25.431Z,1.05
2019-03-15T17:29:38.573Z,0.88
2019-03-15T17:30:54.689Z,2.98
2019-03-15T17:32:08.280Z,1.50
2019-03-15T17:33:24.235Z,1.07
2019-03-15T17:34:37.553Z,1.60
2019-03-15T17:35:51.977Z,1.82
2019-03-15T17:37:06.855Z,0.95
2019-03-15T17:38:20.600Z,0.72
2019-03-15T17:39:34.006Z,0.85
2019-03-15T17:40:49.137Z,0.90
2019-03-15T17:42:02.661Z,0.80
2019-03-15T17:43:16.325Z,2.40
2019-03-15T17:44:32.656Z,0.70
2019-03-15T17:45:52.091Z,2.20
2019-03-15T17:47:11.566Z,3.17
2019-03-15T17:48:27.451Z,1.05
2019-03-15T17:49:40.786Z,1.32
2019-03-15T17:50:54.199Z,1.40
2019-03-15T17:52:07.591Z,1.07
2019-03-15T17:53:20.888Z,1.30
2019-03-15T17:54:39.976Z,1.12
2019-03-15T17:55:53.292Z,0.70
2019-03-15T17:57:06.584Z,1.95
2019-03-15T17:58:19.901Z,2.15
2019-03-15T17:59:33.341Z,1.55
2019-03-15T18:00:49.998Z,1.67
2019-03-15T18:02:04.544Z,1.15
2019-03-15T18:03:24.974Z,1.32
2019-03-15T18:04:40.831Z,2.02
2019-03-15T18:05:53.988Z,0.82
2019-03-15T18:07:07.066Z,1.87